sensor_id;sensor_type;location;lat;lon;timestamp;temperature;humidity
23873;DHT22;42884;50.718;4.630;2023-03-01T00:01:46;-0.80;99.90
23873;DHT22;42884;50.718;4.630;2023-03-01T00:04:11;-0.80;99.90
23873;DHT22;42884;50.718;4.630;2023-03-01T00:06:37;-0.70;99.90
23873;DHT22;42884;50.718;4.630;2023-03-01T00:09:03;-0.70;99.90
23873;DHT22;42884;50.718;4.630;2023-03-01T00:11:29;-0.70;99.90
23873;DHT22;42884;50.718;4.630;2023-03-01T00:13:56;-0.80;99.90
23873;DHT22;42884;50.718;4.630;2023-03-01T00:16:23;-0.90;99.90
23873;DHT22;42884;50.718;4.630;2023-03-01T00:18:49;-0.90;99.90
23873;DHT22;42884;50.718;4.630;2023-03-01T00:21:16;-0.90;99.90
23873;DHT22;42884;50.718;4.630;2023-03-01T00:23:42;-1.00;99.90
23873;DHT22;42884;50.718;4.630;2023-03-01T00:26:09;-1.00;99.90
23873;DHT22;42884;50.718;4.630;2023-03-01T00:28:36;-1.00;99.90
23873;DHT22;42884;50.718;4.630;2023-03-01T00:31:02;-1.00;99.90
23873;DHT22;42884;50.718;4.630;2023-03-01T00:33:28;-1.10;99.90
23873;DHT22;42884;50.718;4.630;2023-03-01T00:35:54;-1.10;99.90
23873;DHT22;42884;50.718;4.630;2023-03-01T00:38:19;-1.10;99.90
23873;DHT22;42884;50.718;4.630;2023-03-01T00:40:45;-1.20;99.90
23873;DHT22;42884;50.718;4.630;2023-03-01T00:43:11;-1.20;99.90
23873;DHT22;42884;50.718;4.630;2023-03-01T00:45:36;-1.10;99.90
23873;DHT22;42884;50.718;4.630;2023-03-01T00:48:02;-1.10;99.90
23873;DHT22;42884;50.718;4.630;2023-03-01T00:50:28;-1.20;99.90
23873;DHT22;42884;50.718;4.630;2023-03-01T00:52:54;-1.20;99.90
23873;DHT22;42884;50.718;4.630;2023-03-01T00:55:20;-1.30;99.90
23873;DHT22;42884;50.718;4.630;2023-03-01T00:57:45;-1.30;99.90
23873;DHT22;42884;50.718;4.630;2023-03-01T01:00:11;-1.30;99.90
23873;DHT22;42884;50.718;4.630;2023-03-01T01:02:37;-1.30;99.90
23873;DHT22;42884;50.718;4.630;2023-03-01T01:05:03;-1.30;99.90
23873;DHT22;42884;50.718;4.630;2023-03-01T01:07:28;-1.40;99.90
23873;DHT22;42884;50.718;4.630;2023-03-01T01:09:54;-1.40;99.90
23873;DHT22;42884;50.718;4.630;2023-03-01T01:12:20;-1.40;99.90
23873;DHT22;42884;50.718;4.630;2023-03-01T01:14:45;-1.40;99.90
23873;DHT22;42884;50.718;4.630;2023-03-01T01:17:11;-1.40;99.90
23873;DHT22;42884;50.718;4.630;2023-03-01T01:19:37;-1.50;99.90
23873;DHT22;42884;50.718;4.630;2023-03-01T01:22:02;-1.80;99.90
23873;DHT22;42884;50.718;4.630;2023-03-01T01:24:29;-1.50;99.90
23873;DHT22;42884;50.718;4.630;2023-03-01T01:26:54;-1.60;99.90
23873;DHT22;42884;50.718;4.630;2023-03-01T01:29:20;-1.50;99.90
23873;DHT22;42884;50.718;4.630;2023-03-01T01:31:45;-1.50;99.90
23873;DHT22;42884;50.718;4.630;2023-03-01T01:34:16;-1.50;99.90
23873;DHT22;42884;50.718;4.630;2023-03-01T01:36:42;-1.50;99.90
23873;DHT22;42884;50.718;4.630;2023-03-01T01:39:08;-1.60;99.90
23873;DHT22;42884;50.718;4.630;2023-03-01T01:41:38;-1.70;99.90
23873;DHT22;42884;50.718;4.630;2023-03-01T01:44:12;-1.60;99.90
23873;DHT22;42884;50.718;4.630;2023-03-01T01:46:40;-1.60;99.90
23873;DHT22;42884;50.718;4.630;2023-03-01T01:49:13;-1.60;99.90
23873;DHT22;42884;50.718;4.630;2023-03-01T01:51:40;-1.60;99.90
23873;DHT22;42884;50.718;4.630;2023-03-01T01:54:19;-1.70;99.90
23873;DHT22;42884;50.718;4.630;2023-03-01T01:56:52;-1.70;99.90
23873;DHT22;42884;50.718;4.630;2023-03-01T01:59:20;-1.70;99.90
23873;DHT22;42884;50.718;4.630;2023-03-01T02:01:50;-1.70;99.90
23873;DHT22;42884;50.718;4.630;2023-03-01T02:04:16;-1.80;99.90
23873;DHT22;42884;50.718;4.630;2023-03-01T02:06:44;-1.80;99.90
23873;DHT22;42884;50.718;4.630;2023-03-01T02:09:12;-1.80;99.90
23873;DHT22;42884;50.718;4.630;2023-03-01T02:11:38;-1.80;99.90
23873;DHT22;42884;50.718;4.630;2023-03-01T02:14:04;-1.80;99.90
23873;DHT22;42884;50.718;4.630;2023-03-01T02:16:30;-1.80;99.90
23873;DHT22;42884;50.718;4.630;2023-03-01T02:18:56;-1.90;99.90
23873;DHT22;42884;50.718;4.630;2023-03-01T02:21:30;-1.80;99.90
23873;DHT22;42884;50.718;4.630;2023-03-01T02:23:58;-1.90;99.90
23873;DHT22;42884;50.718;4.630;2023-03-01T02:28:50;-1.90;99.90
23873;DHT22;42884;50.718;4.630;2023-03-01T02:31:16;-1.90;99.90
23873;DHT22;42884;50.718;4.630;2023-03-01T02:34:01;-1.90;99.90
23873;DHT22;42884;50.718;4.630;2023-03-01T02:36:37;-2.00;99.90
23873;DHT22;42884;50.718;4.630;2023-03-01T02:39:04;-2.00;99.90
23873;DHT22;42884;50.718;4.630;2023-03-01T02:41:32;-2.00;99.90
23873;DHT22;42884;50.718;4.630;2023-03-01T02:43:59;-2.00;99.90
23873;DHT22;42884;50.718;4.630;2023-03-01T02:46:25;-2.00;99.90
23873;DHT22;42884;50.718;4.630;2023-03-01T02:48:52;-2.10;99.90
23873;DHT22;42884;50.718;4.630;2023-03-01T02:56:30;-2.20;99.90
23873;DHT22;42884;50.718;4.630;2023-03-01T02:58:56;-2.20;99.90
23873;DHT22;42884;50.718;4.630;2023-03-01T03:01:26;-2.20;99.90
23873;DHT22;42884;50.718;4.630;2023-03-01T03:04:06;-2.20;99.90
23873;DHT22;42884;50.718;4.630;2023-03-01T03:06:31;-2.20;99.90
23873;DHT22;42884;50.718;4.630;2023-03-01T03:08:57;-2.20;99.90
23873;DHT22;42884;50.718;4.630;2023-03-01T03:11:23;-2.30;99.90
23873;DHT22;42884;50.718;4.630;2023-03-01T03:13:48;-2.20;99.90
23873;DHT22;42884;50.718;4.630;2023-03-01T03:16:14;-2.30;99.90
23873;DHT22;42884;50.718;4.630;2023-03-01T03:18:40;-2.30;99.90
23873;DHT22;42884;50.718;4.630;2023-03-01T03:21:09;-2.30;99.90
23873;DHT22;42884;50.718;4.630;2023-03-01T03:23:37;-2.30;99.90
23873;DHT22;42884;50.718;4.630;2023-03-01T03:26:03;-2.30;99.90
23873;DHT22;42884;50.718;4.630;2023-03-01T03:28:30;-2.40;99.90
23873;DHT22;42884;50.718;4.630;2023-03-01T03:30:56;-2.40;99.90
23873;DHT22;42884;50.718;4.630;2023-03-01T03:33:21;-2.40;99.90
23873;DHT22;42884;50.718;4.630;2023-03-01T03:35:48;-2.40;99.90
23873;DHT22;42884;50.718;4.630;2023-03-01T03:38:14;-2.50;99.90
23873;DHT22;42884;50.718;4.630;2023-03-01T03:40:51;-2.50;99.90
23873;DHT22;42884;50.718;4.630;2023-03-01T03:43:18;-2.50;99.90
23873;DHT22;42884;50.718;4.630;2023-03-01T03:45:44;-2.50;99.90
23873;DHT22;42884;50.718;4.630;2023-03-01T03:48:10;-2.50;99.90
23873;DHT22;42884;50.718;4.630;2023-03-01T03:50:36;-2.50;99.90
23873;DHT22;42884;50.718;4.630;2023-03-01T03:53:03;-2.50;99.90
23873;DHT22;42884;50.718;4.630;2023-03-01T03:55:29;-2.50;99.90
23873;DHT22;42884;50.718;4.630;2023-03-01T03:57:59;-2.60;99.90
23873;DHT22;42884;50.718;4.630;2023-03-01T04:00:41;-2.60;99.90
23873;DHT22;42884;50.718;4.630;2023-03-01T04:03:07;-2.60;99.90
23873;DHT22;42884;50.718;4.630;2023-03-01T04:05:33;-2.60;99.90
23873;DHT22;42884;50.718;4.630;2023-03-01T04:07:59;-2.70;99.90
23873;DHT22;42884;50.718;4.630;2023-03-01T04:10:28;-2.70;99.90
23873;DHT22;42884;50.718;4.630;2023-03-01T04:12:54;-2.70;99.90
23873;DHT22;42884;50.718;4.630;2023-03-01T04:15:23;-2.70;99.90
23873;DHT22;42884;50.718;4.630;2023-03-01T04:17:50;-2.70;99.90
23873;DHT22;42884;50.718;4.630;2023-03-01T04:20:18;-2.70;99.90
23873;DHT22;42884;50.718;4.630;2023-03-01T04:22:50;-2.70;99.90
23873;DHT22;42884;50.718;4.630;2023-03-01T04:25:16;-2.70;99.90
23873;DHT22;42884;50.718;4.630;2023-03-01T04:27:41;-2.80;99.90
23873;DHT22;42884;50.718;4.630;2023-03-01T04:30:08;-2.80;99.90
23873;DHT22;42884;50.718;4.630;2023-03-01T04:32:34;-2.80;99.90
23873;DHT22;42884;50.718;4.630;2023-03-01T04:34:59;-2.80;99.90
23873;DHT22;42884;50.718;4.630;2023-03-01T04:37:25;-2.80;99.90
23873;DHT22;42884;50.718;4.630;2023-03-01T04:39:51;-2.80;99.90
23873;DHT22;42884;50.718;4.630;2023-03-01T04:42:17;-2.90;99.90
23873;DHT22;42884;50.718;4.630;2023-03-01T04:44:43;-2.80;99.90
23873;DHT22;42884;50.718;4.630;2023-03-01T04:47:08;-2.90;99.90
23873;DHT22;42884;50.718;4.630;2023-03-01T04:49:34;-2.90;99.90
23873;DHT22;42884;50.718;4.630;2023-03-01T04:52:00;-2.90;99.90
23873;DHT22;42884;50.718;4.630;2023-03-01T04:54:27;-2.90;99.90
23873;DHT22;42884;50.718;4.630;2023-03-01T04:56:53;-2.90;99.90
23873;DHT22;42884;50.718;4.630;2023-03-01T04:59:19;-3.00;99.90
23873;DHT22;42884;50.718;4.630;2023-03-01T05:01:50;-3.00;99.90
23873;DHT22;42884;50.718;4.630;2023-03-01T05:04:16;-3.00;99.90
23873;DHT22;42884;50.718;4.630;2023-03-01T05:06:42;-3.00;99.90
23873;DHT22;42884;50.718;4.630;2023-03-01T05:09:07;-3.00;99.90
23873;DHT22;42884;50.718;4.630;2023-03-01T05:11:33;-3.10;99.90
23873;DHT22;42884;50.718;4.630;2023-03-01T05:14:09;-3.10;99.90
23873;DHT22;42884;50.718;4.630;2023-03-01T05:16:35;-3.20;99.90
23873;DHT22;42884;50.718;4.630;2023-03-01T05:19:01;-3.20;99.90
23873;DHT22;42884;50.718;4.630;2023-03-01T05:21:39;-3.20;99.90
23873;DHT22;42884;50.718;4.630;2023-03-01T05:24:25;-3.10;99.90
23873;DHT22;42884;50.718;4.630;2023-03-01T05:26:50;-3.20;99.90
23873;DHT22;42884;50.718;4.630;2023-03-01T05:29:19;-3.20;99.90
23873;DHT22;42884;50.718;4.630;2023-03-01T05:31:51;-3.20;99.90
23873;DHT22;42884;50.718;4.630;2023-03-01T05:34:17;-3.20;99.90
23873;DHT22;42884;50.718;4.630;2023-03-01T05:36:43;-3.20;99.90
23873;DHT22;42884;50.718;4.630;2023-03-01T05:39:08;-3.20;99.90
23873;DHT22;42884;50.718;4.630;2023-03-01T05:41:34;-3.20;99.90
23873;DHT22;42884;50.718;4.630;2023-03-01T05:43:59;-3.20;99.90
23873;DHT22;42884;50.718;4.630;2023-03-01T05:46:25;-3.30;99.90
23873;DHT22;42884;50.718;4.630;2023-03-01T05:48:50;-3.40;99.90
23873;DHT22;42884;50.718;4.630;2023-03-01T05:51:16;-3.30;99.90
23873;DHT22;42884;50.718;4.630;2023-03-01T05:53:42;-3.40;99.90
23873;DHT22;42884;50.718;4.630;2023-03-01T05:56:08;-3.30;99.90
23873;DHT22;42884;50.718;4.630;2023-03-01T05:58:33;-3.40;99.90
23873;DHT22;42884;50.718;4.630;2023-03-01T06:00:59;-3.30;99.90
23873;DHT22;42884;50.718;4.630;2023-03-01T06:03:25;-3.40;99.90
23873;DHT22;42884;50.718;4.630;2023-03-01T06:05:55;-3.40;99.90
23873;DHT22;42884;50.718;4.630;2023-03-01T06:08:20;-3.40;99.90
23873;DHT22;42884;50.718;4.630;2023-03-01T06:10:47;-3.50;99.90
23873;DHT22;42884;50.718;4.630;2023-03-01T06:13:13;-3.40;99.90
23873;DHT22;42884;50.718;4.630;2023-03-01T06:15:38;-3.50;99.90
23873;DHT22;42884;50.718;4.630;2023-03-01T06:18:04;-3.40;99.90
23873;DHT22;42884;50.718;4.630;2023-03-01T06:20:29;-3.50;99.90
23873;DHT22;42884;50.718;4.630;2023-03-01T06:22:55;-3.50;99.90
23873;DHT22;42884;50.718;4.630;2023-03-01T06:25:22;-3.50;99.90
23873;DHT22;42884;50.718;4.630;2023-03-01T06:27:48;-3.60;99.90
23873;DHT22;42884;50.718;4.630;2023-03-01T06:30:15;-3.60;99.90
23873;DHT22;42884;50.718;4.630;2023-03-01T06:32:42;-3.60;99.90
23873;DHT22;42884;50.718;4.630;2023-03-01T06:35:08;-3.50;99.90
23873;DHT22;42884;50.718;4.630;2023-03-01T06:37:34;-3.50;99.90
23873;DHT22;42884;50.718;4.630;2023-03-01T06:40:01;-3.50;99.90
23873;DHT22;42884;50.718;4.630;2023-03-01T06:42:30;-3.50;99.90
23873;DHT22;42884;50.718;4.630;2023-03-01T06:44:55;-3.60;99.90
23873;DHT22;42884;50.718;4.630;2023-03-01T06:47:21;-3.50;99.90
23873;DHT22;42884;50.718;4.630;2023-03-01T06:49:46;-3.60;99.90
23873;DHT22;42884;50.718;4.630;2023-03-01T06:52:12;-3.50;99.90
23873;DHT22;42884;50.718;4.630;2023-03-01T06:54:38;-3.50;99.90
23873;DHT22;42884;50.718;4.630;2023-03-01T06:57:03;-3.40;99.90
23873;DHT22;42884;50.718;4.630;2023-03-01T06:59:29;-3.50;99.90
23873;DHT22;42884;50.718;4.630;2023-03-01T07:01:54;-3.40;99.90
23873;DHT22;42884;50.718;4.630;2023-03-01T07:04:20;-3.40;99.90
23873;DHT22;42884;50.718;4.630;2023-03-01T07:06:46;-3.40;99.90
23873;DHT22;42884;50.718;4.630;2023-03-01T07:09:11;-3.30;99.90
23873;DHT22;42884;50.718;4.630;2023-03-01T07:11:37;-3.30;99.90
23873;DHT22;42884;50.718;4.630;2023-03-01T07:14:02;-3.20;99.90
23873;DHT22;42884;50.718;4.630;2023-03-01T07:16:28;-3.20;99.90
23873;DHT22;42884;50.718;4.630;2023-03-01T07:18:54;-3.20;99.90
23873;DHT22;42884;50.718;4.630;2023-03-01T07:21:19;-3.10;99.90
23873;DHT22;42884;50.718;4.630;2023-03-01T07:23:46;-3.00;99.90
23873;DHT22;42884;50.718;4.630;2023-03-01T07:26:12;-3.00;99.90
23873;DHT22;42884;50.718;4.630;2023-03-01T07:28:38;-2.90;99.90
23873;DHT22;42884;50.718;4.630;2023-03-01T07:31:07;-2.80;99.90
23873;DHT22;42884;50.718;4.630;2023-03-01T07:33:33;-2.70;99.90
23873;DHT22;42884;50.718;4.630;2023-03-01T07:35:59;-2.60;99.90
23873;DHT22;42884;50.718;4.630;2023-03-01T07:38:25;-2.60;99.90
23873;DHT22;42884;50.718;4.630;2023-03-01T07:40:51;-2.60;99.90
23873;DHT22;42884;50.718;4.630;2023-03-01T07:43:17;-2.40;99.90
23873;DHT22;42884;50.718;4.630;2023-03-01T07:45:42;-2.30;99.90
23873;DHT22;42884;50.718;4.630;2023-03-01T07:48:08;-2.20;99.90
23873;DHT22;42884;50.718;4.630;2023-03-01T07:50:33;-2.20;99.90
23873;DHT22;42884;50.718;4.630;2023-03-01T07:52:59;-2.00;99.90
23873;DHT22;42884;50.718;4.630;2023-03-01T07:55:25;-1.90;99.90
23873;DHT22;42884;50.718;4.630;2023-03-01T07:57:50;-1.90;99.90
23873;DHT22;42884;50.718;4.630;2023-03-01T08:00:16;-1.80;99.90
23873;DHT22;42884;50.718;4.630;2023-03-01T08:02:42;-1.60;99.90
23873;DHT22;42884;50.718;4.630;2023-03-01T08:05:08;-1.50;99.90
23873;DHT22;42884;50.718;4.630;2023-03-01T08:07:34;-1.30;99.90
23873;DHT22;42884;50.718;4.630;2023-03-01T08:10:00;-1.20;99.90
23873;DHT22;42884;50.718;4.630;2023-03-01T08:12:25;-1.10;99.90
23873;DHT22;42884;50.718;4.630;2023-03-01T08:14:53;-1.00;99.90
23873;DHT22;42884;50.718;4.630;2023-03-01T08:17:19;-0.90;99.90
23873;DHT22;42884;50.718;4.630;2023-03-01T08:19:44;-0.70;99.90
23873;DHT22;42884;50.718;4.630;2023-03-01T08:22:10;-0.60;99.90
23873;DHT22;42884;50.718;4.630;2023-03-01T08:24:36;-0.40;99.90
23873;DHT22;42884;50.718;4.630;2023-03-01T08:27:01;-0.30;99.90
23873;DHT22;42884;50.718;4.630;2023-03-01T08:29:29;-0.20;99.90
23873;DHT22;42884;50.718;4.630;2023-03-01T08:31:55;0.00;99.90
23873;DHT22;42884;50.718;4.630;2023-03-01T08:34:21;0.00;99.90
23873;DHT22;42884;50.718;4.630;2023-03-01T08:36:46;0.20;99.90
23873;DHT22;42884;50.718;4.630;2023-03-01T08:39:13;0.30;99.90
23873;DHT22;42884;50.718;4.630;2023-03-01T08:41:39;0.50;99.90
23873;DHT22;42884;50.718;4.630;2023-03-01T08:44:05;0.60;99.90
23873;DHT22;42884;50.718;4.630;2023-03-01T08:46:32;0.70;99.90
23873;DHT22;42884;50.718;4.630;2023-03-01T08:48:58;0.80;99.90
23873;DHT22;42884;50.718;4.630;2023-03-01T08:51:24;0.90;99.90
23873;DHT22;42884;50.718;4.630;2023-03-01T08:53:50;1.00;99.90
23873;DHT22;42884;50.718;4.630;2023-03-01T08:56:16;1.20;99.90
23873;DHT22;42884;50.718;4.630;2023-03-01T08:58:47;1.40;99.90
23873;DHT22;42884;50.718;4.630;2023-03-01T09:01:14;1.50;99.90
23873;DHT22;42884;50.718;4.630;2023-03-01T09:03:40;1.70;99.90
23873;DHT22;42884;50.718;4.630;2023-03-01T09:06:06;1.80;99.90
23873;DHT22;42884;50.718;4.630;2023-03-01T09:08:36;1.90;99.90
23873;DHT22;42884;50.718;4.630;2023-03-01T09:11:03;2.00;99.90
23873;DHT22;42884;50.718;4.630;2023-03-01T09:13:28;2.20;99.90
23873;DHT22;42884;50.718;4.630;2023-03-01T09:15:56;2.40;99.90
23873;DHT22;42884;50.718;4.630;2023-03-01T09:18:22;2.80;99.90
23873;DHT22;42884;50.718;4.630;2023-03-01T09:20:48;3.20;99.90
23873;DHT22;42884;50.718;4.630;2023-03-01T09:23:13;3.90;99.90
23873;DHT22;42884;50.718;4.630;2023-03-01T09:25:39;5.20;99.90
23873;DHT22;42884;50.718;4.630;2023-03-01T09:28:04;6.30;99.90
23873;DHT22;42884;50.718;4.630;2023-03-01T09:30:30;7.70;99.90
23873;DHT22;42884;50.718;4.630;2023-03-01T09:32:56;8.90;99.90
23873;DHT22;42884;50.718;4.630;2023-03-01T09:35:21;10.50;99.90
23873;DHT22;42884;50.718;4.630;2023-03-01T09:37:47;11.60;99.90
23873;DHT22;42884;50.718;4.630;2023-03-01T09:40:19;13.00;99.90
23873;DHT22;42884;50.718;4.630;2023-03-01T09:42:55;13.70;99.50
23873;DHT22;42884;50.718;4.630;2023-03-01T09:45:33;14.80;97.30
23873;DHT22;42884;50.718;4.630;2023-03-01T09:48:00;16.10;95.40
23873;DHT22;42884;50.718;4.630;2023-03-01T09:50:26;15.10;93.00
23873;DHT22;42884;50.718;4.630;2023-03-01T09:53:27;14.90;92.10
23873;DHT22;42884;50.718;4.630;2023-03-01T09:55:50;14.60;92.40
23873;DHT22;42884;50.718;4.630;2023-03-01T10:00:52;16.60;91.00
23873;DHT22;42884;50.718;4.630;2023-03-01T10:03:25;16.90;86.10
23873;DHT22;42884;50.718;4.630;2023-03-01T10:05:59;15.80;87.70
23873;DHT22;42884;50.718;4.630;2023-03-01T10:08:31;15.10;86.40
23873;DHT22;42884;50.718;4.630;2023-03-01T10:11:01;15.60;90.20
23873;DHT22;42884;50.718;4.630;2023-03-01T10:13:51;16.40;88.70
23873;DHT22;42884;50.718;4.630;2023-03-01T10:16:21;17.70;86.90
23873;DHT22;42884;50.718;4.630;2023-03-01T10:18:49;16.10;82.80
23873;DHT22;42884;50.718;4.630;2023-03-01T10:21:17;15.60;85.80
23873;DHT22;42884;50.718;4.630;2023-03-01T10:23:44;16.30;85.90
23873;DHT22;42884;50.718;4.630;2023-03-01T10:29:00;16.30;84.40
23873;DHT22;42884;50.718;4.630;2023-03-01T10:31:32;17.50;84.10
23873;DHT22;42884;50.718;4.630;2023-03-01T10:34:04;18.60;81.10
23873;DHT22;42884;50.718;4.630;2023-03-01T10:36:30;18.70;78.60
23873;DHT22;42884;50.718;4.630;2023-03-01T10:38:57;18.80;78.90
23873;DHT22;42884;50.718;4.630;2023-03-01T10:41:25;18.80;76.10
23873;DHT22;42884;50.718;4.630;2023-03-01T10:43:52;18.90;77.00
23873;DHT22;42884;50.718;4.630;2023-03-01T10:46:32;17.20;77.70
23873;DHT22;42884;50.718;4.630;2023-03-01T10:51:29;18.00;78.30
23873;DHT22;42884;50.718;4.630;2023-03-01T10:53:55;18.00;74.40
23873;DHT22;42884;50.718;4.630;2023-03-01T10:56:21;17.00;75.20
23873;DHT22;42884;50.718;4.630;2023-03-01T11:03:54;17.90;75.80
23873;DHT22;42884;50.718;4.630;2023-03-01T11:06:27;18.40;76.00
23873;DHT22;42884;50.718;4.630;2023-03-01T11:08:53;18.20;76.00
23873;DHT22;42884;50.718;4.630;2023-03-01T11:11:23;18.10;74.80
23873;DHT22;42884;50.718;4.630;2023-03-01T11:16:25;17.60;75.30
23873;DHT22;42884;50.718;4.630;2023-03-01T11:18:56;17.70;75.60
23873;DHT22;42884;50.718;4.630;2023-03-01T11:21:22;17.40;75.10
23873;DHT22;42884;50.718;4.630;2023-03-01T11:23:48;17.30;76.30
23873;DHT22;42884;50.718;4.630;2023-03-01T11:26:13;16.60;73.80
23873;DHT22;42884;50.718;4.630;2023-03-01T11:28:40;16.30;78.00
23873;DHT22;42884;50.718;4.630;2023-03-01T11:31:08;16.10;78.60
23873;DHT22;42884;50.718;4.630;2023-03-01T11:33:44;16.00;76.20
23873;DHT22;42884;50.718;4.630;2023-03-01T11:36:28;15.90;76.20
23873;DHT22;42884;50.718;4.630;2023-03-01T11:38:55;15.10;81.30
23873;DHT22;42884;50.718;4.630;2023-03-01T11:41:23;14.60;80.10
23873;DHT22;42884;50.718;4.630;2023-03-01T11:44:05;15.10;81.60
23873;DHT22;42884;50.718;4.630;2023-03-01T11:46:45;14.60;79.10
23873;DHT22;42884;50.718;4.630;2023-03-01T11:54:09;15.30;77.70
23873;DHT22;42884;50.718;4.630;2023-03-01T11:56:39;15.50;78.10
23873;DHT22;42884;50.718;4.630;2023-03-01T12:02:07;14.00;80.00
23873;DHT22;42884;50.718;4.630;2023-03-01T12:12:43;14.40;76.80
23873;DHT22;42884;50.718;4.630;2023-03-01T12:17:52;15.10;80.00
23873;DHT22;42884;50.718;4.630;2023-03-01T12:33:17;17.10;77.00
23873;DHT22;42884;50.718;4.630;2023-03-01T12:38:45;17.10;74.70
23873;DHT22;42884;50.718;4.630;2023-03-01T12:43:57;16.20;72.30
23873;DHT22;42884;50.718;4.630;2023-03-01T12:51:20;15.50;75.90
23873;DHT22;42884;50.718;4.630;2023-03-01T12:53:48;15.90;75.80
23873;DHT22;42884;50.718;4.630;2023-03-01T12:56:21;16.60;77.00
23873;DHT22;42884;50.718;4.630;2023-03-01T13:01:33;16.40;72.90
23873;DHT22;42884;50.718;4.630;2023-03-01T13:04:14;16.60;77.20
23873;DHT22;42884;50.718;4.630;2023-03-01T13:06:54;16.90;77.20
23873;DHT22;42884;50.718;4.630;2023-03-01T13:11:49;17.80;75.40
23873;DHT22;42884;50.718;4.630;2023-03-01T13:16:51;18.70;73.20
23873;DHT22;42884;50.718;4.630;2023-03-01T13:19:24;18.20;72.80
23873;DHT22;42884;50.718;4.630;2023-03-01T13:21:51;18.30;75.60
23873;DHT22;42884;50.718;4.630;2023-03-01T13:24:24;18.00;74.00
23873;DHT22;42884;50.718;4.630;2023-03-01T13:32:20;18.60;70.80
23873;DHT22;42884;50.718;4.630;2023-03-01T13:34:47;18.50;75.10
23873;DHT22;42884;50.718;4.630;2023-03-01T13:37:20;18.10;72.60
23873;DHT22;42884;50.718;4.630;2023-03-01T13:39:46;18.40;69.10
23873;DHT22;42884;50.718;4.630;2023-03-01T13:42:45;18.70;69.80
23873;DHT22;42884;50.718;4.630;2023-03-01T13:45:12;19.00;68.40
23873;DHT22;42884;50.718;4.630;2023-03-01T13:47:41;18.50;67.40
23873;DHT22;42884;50.718;4.630;2023-03-01T13:50:14;18.30;70.40
23873;DHT22;42884;50.718;4.630;2023-03-01T13:55:14;18.50;68.10
23873;DHT22;42884;50.718;4.630;2023-03-01T13:57:50;19.30;69.10
23873;DHT22;42884;50.718;4.630;2023-03-01T14:05:34;18.70;68.80
23873;DHT22;42884;50.718;4.630;2023-03-01T14:08:02;19.10;69.20
23873;DHT22;42884;50.718;4.630;2023-03-01T14:10:32;18.40;67.10
23873;DHT22;42884;50.718;4.630;2023-03-01T14:13:03;18.40;67.30
23873;DHT22;42884;50.718;4.630;2023-03-01T14:15:34;18.50;67.80
23873;DHT22;42884;50.718;4.630;2023-03-01T14:18:12;18.20;68.80
23873;DHT22;42884;50.718;4.630;2023-03-01T14:20:41;18.70;69.30
23873;DHT22;42884;50.718;4.630;2023-03-01T14:23:11;18.00;64.20
23873;DHT22;42884;50.718;4.630;2023-03-01T14:25:38;18.10;66.20
23873;DHT22;42884;50.718;4.630;2023-03-01T14:28:14;18.30;67.10
23873;DHT22;42884;50.718;4.630;2023-03-01T14:30:42;17.90;67.30
23873;DHT22;42884;50.718;4.630;2023-03-01T14:33:22;18.10;68.00
23873;DHT22;42884;50.718;4.630;2023-03-01T14:35:53;18.40;68.40
23873;DHT22;42884;50.718;4.630;2023-03-01T14:41:09;17.50;67.30
23873;DHT22;42884;50.718;4.630;2023-03-01T14:43:37;17.00;68.40
23873;DHT22;42884;50.718;4.630;2023-03-01T14:46:03;16.10;69.60
23873;DHT22;42884;50.718;4.630;2023-03-01T14:48:28;15.10;70.10
23873;DHT22;42884;50.718;4.630;2023-03-01T14:50:55;14.60;72.00
23873;DHT22;42884;50.718;4.630;2023-03-01T14:53:24;13.90;73.80
23873;DHT22;42884;50.718;4.630;2023-03-01T14:55:52;13.30;77.80
23873;DHT22;42884;50.718;4.630;2023-03-01T14:58:19;12.50;76.60
23873;DHT22;42884;50.718;4.630;2023-03-01T15:00:50;12.50;78.70
23873;DHT22;42884;50.718;4.630;2023-03-01T15:03:23;12.20;77.10
23873;DHT22;42884;50.718;4.630;2023-03-01T15:05:49;11.90;80.70
23873;DHT22;42884;50.718;4.630;2023-03-01T15:08:19;11.90;81.90
23873;DHT22;42884;50.718;4.630;2023-03-01T15:11:02;11.70;80.90
23873;DHT22;42884;50.718;4.630;2023-03-01T15:13:29;11.20;80.60
23873;DHT22;42884;50.718;4.630;2023-03-01T15:16:09;11.00;83.20
23873;DHT22;42884;50.718;4.630;2023-03-01T15:18:36;10.70;83.10
23873;DHT22;42884;50.718;4.630;2023-03-01T15:21:06;10.50;85.20
23873;DHT22;42884;50.718;4.630;2023-03-01T15:23:32;10.30;84.90
23873;DHT22;42884;50.718;4.630;2023-03-01T15:25:59;10.30;85.50
23873;DHT22;42884;50.718;4.630;2023-03-01T15:28:37;10.20;85.90
23873;DHT22;42884;50.718;4.630;2023-03-01T15:33:45;9.90;86.50
23873;DHT22;42884;50.718;4.630;2023-03-01T15:36:32;9.40;86.20
23873;DHT22;42884;50.718;4.630;2023-03-01T15:38:58;9.30;87.00
23873;DHT22;42884;50.718;4.630;2023-03-01T15:43:51;9.20;86.30
23873;DHT22;42884;50.718;4.630;2023-03-01T15:46:27;9.00;86.90
23873;DHT22;42884;50.718;4.630;2023-03-01T15:48:57;9.00;87.60
23873;DHT22;42884;50.718;4.630;2023-03-01T15:51:27;8.90;87.80
23873;DHT22;42884;50.718;4.630;2023-03-01T15:53:53;8.70;89.90
23873;DHT22;42884;50.718;4.630;2023-03-01T15:56:19;8.80;88.80
23873;DHT22;42884;50.718;4.630;2023-03-01T15:58:45;8.60;88.50
23873;DHT22;42884;50.718;4.630;2023-03-01T16:01:12;8.30;89.30
23873;DHT22;42884;50.718;4.630;2023-03-01T16:03:38;8.30;90.20
23873;DHT22;42884;50.718;4.630;2023-03-01T16:06:04;8.20;88.70
23873;DHT22;42884;50.718;4.630;2023-03-01T16:08:29;8.40;88.30
23873;DHT22;42884;50.718;4.630;2023-03-01T16:10:55;8.30;89.70
23873;DHT22;42884;50.718;4.630;2023-03-01T16:13:20;8.20;87.90
23873;DHT22;42884;50.718;4.630;2023-03-01T16:15:46;8.10;90.60
23873;DHT22;42884;50.718;4.630;2023-03-01T16:18:12;8.10;89.40
23873;DHT22;42884;50.718;4.630;2023-03-01T16:20:37;8.00;90.50
23873;DHT22;42884;50.718;4.630;2023-03-01T16:23:05;8.10;90.10
23873;DHT22;42884;50.718;4.630;2023-03-01T16:25:31;8.20;89.90
23873;DHT22;42884;50.718;4.630;2023-03-01T16:27:57;8.20;89.80
23873;DHT22;42884;50.718;4.630;2023-03-01T16:30:25;8.00;89.40
23873;DHT22;42884;50.718;4.630;2023-03-01T16:32:51;7.90;90.30
23873;DHT22;42884;50.718;4.630;2023-03-01T16:35:19;7.80;91.00
23873;DHT22;42884;50.718;4.630;2023-03-01T16:37:45;7.80;91.50
23873;DHT22;42884;50.718;4.630;2023-03-01T16:40:16;7.80;90.90
23873;DHT22;42884;50.718;4.630;2023-03-01T16:42:42;7.80;91.40
23873;DHT22;42884;50.718;4.630;2023-03-01T16:45:07;7.80;91.50
23873;DHT22;42884;50.718;4.630;2023-03-01T16:47:33;7.60;91.80
23873;DHT22;42884;50.718;4.630;2023-03-01T16:49:59;7.60;92.90
23873;DHT22;42884;50.718;4.630;2023-03-01T16:52:25;7.60;93.40
23873;DHT22;42884;50.718;4.630;2023-03-01T16:54:51;7.60;92.60
23873;DHT22;42884;50.718;4.630;2023-03-01T16:57:16;7.60;92.60
23873;DHT22;42884;50.718;4.630;2023-03-01T16:59:42;7.60;92.70
23873;DHT22;42884;50.718;4.630;2023-03-01T17:02:13;7.50;92.20
23873;DHT22;42884;50.718;4.630;2023-03-01T17:04:45;7.30;92.90
23873;DHT22;42884;50.718;4.630;2023-03-01T17:07:10;7.20;93.00
23873;DHT22;42884;50.718;4.630;2023-03-01T17:09:37;7.00;93.30
23873;DHT22;42884;50.718;4.630;2023-03-01T17:12:03;7.10;93.00